Latest Weather Observations for Cessnock Airport

IDN60801

Issued at 7:03 pm EST Saturday 23 July 2016 (issued every 30 minutes, with the page automatically refreshed every 10 minutes)

About weather observations | Map of weather stations | Latest weather observations for NSW | Other Formats
Station Details ID: 061260 Name: CESSNOCK AIRPORT AWS Lat: -32.79 Lon: 151.34 Height: 61.0 m
Data from the previous 72 hours. | See also: Recent months at Cessnock Airport
Date/Time
EST
Temp
°C
App
Temp
°C
Dew
Point
°C
Rel
Hum
%
Delta-T
°C
Wind Press
QNH
hPa
Press
MSL
hPa
Rain since
9am
mm
Dir  Spd
km/h
Gust
km/h
Spd
kts
Gust
kts
23/07:00pm 12.0 7.8 1.9 50 4.3 NW 13 19 7 10 1010.6 1010.6 0.0
23/06:30pm 12.6 8.1 1.9 48 4.6 NW 15 20 8 11 1010.1 1010.1 0.0
23/06:00pm 13.2 8.2 1.2 44 5.1 WNW 17 32 9 17 1009.6 1009.6 0.0
23/05:30pm 13.6 8.6 1.3 43 5.3 WNW 17 35 9 19 1009.3 1009.3 0.0
23/05:00pm 14.6 9.0 -0.3 36 6.3 WNW 19 26 10 14 1008.5 1008.5 0.0
23/04:30pm 15.5 9.0 0.5 36 6.4 NW 24 43 13 23 1007.7 1007.7 0.0
23/04:00pm 16.1 8.5 0.3 34 6.8 WNW 30 48 16 26 1007.0 1007.0 0.0
23/03:34pm 16.6 8.6 0.3 33 7.0 WNW 32 50 17 27 1006.6 1006.6 0.0
23/03:30pm 16.7 9.0 -0.1 32 7.2 WNW 30 43 16 23 1006.5 1006.5 0.0
23/03:00pm 16.7 8.1 -0.1 32 7.2 WNW 35 54 19 29 1006.0 1006.0 0.0
23/02:30pm 17.1 9.4 -0.1 31 7.4 WNW 30 52 16 28 1005.7 1005.7 0.0
23/02:00pm 17.4 9.3 1.0 33 7.3 NW 33 57 18 31 1005.3 1005.4 0.0
23/01:30pm 17.5 10.2 0.2 31 7.5 WNW 28 48 15 26 1005.3 1005.4 0.0
23/01:00pm 17.1 8.5 0.3 32 7.3 WNW 35 63 19 34 1005.1 1005.2 0.0
23/12:30pm 17.0 8.8 0.2 32 7.3 WNW 33 61 18 33 1005.2 1005.3 0.0
23/12:00pm 17.3 9.2 -0.4 30 7.6 WNW 32 54 17 29 1005.5 1005.6 0.0
23/11:30am 17.2 9.6 0.4 32 7.3 WNW 30 52 16 28 1005.7 1005.7 0.0
23/11:01am 17.1 9.1 0.3 32 7.3 NW 32 50 17 27 1006.1 1006.1 0.0
23/11:00am 17.2 9.2 0.4 32 7.3 NW 32 46 17 25 1006.2 1006.2 0.0
23/10:39am 16.8 9.5 0.0 32 7.2 WNW 28 46 15 25 1006.5 1006.5 0.0
23/10:30am 17.0 10.5 0.2 32 7.3 WNW 24 54 13 29 1006.6 1006.6 0.0
23/10:00am 17.0 9.7 -0.2 31 7.4 WNW 28 52 15 28 1006.8 1006.8 0.0
23/09:40am 16.8 9.6 0.5 33 7.1 WNW 28 54 15 29 1006.4 1006.4 0.0
23/09:30am 17.0 10.9 0.2 32 7.3 WNW 22 44 12 24 1006.3 1006.3 0.0
23/09:15am 16.9 9.6 0.1 32 7.3 WNW 28 50 15 27 1006.0 1006.0 0.0
23/09:00am 17.1 10.7 1.1 34 7.1 WNW 24 54 13 29 1005.9 1005.9 0.0
23/08:47am 16.8 9.6 0.5 33 7.1 WNW 28 48 15 26 1005.5 1005.6 0.0
23/08:30am 16.7 11.4 1.6 36 6.7 NW 19 43 10 23 1005.4 1005.5 0.0
23/08:00am 16.5 7.1 0.2 33 7.1 WNW 39 59 21 32 1005.0 1005.1 0.0
23/07:52am 16.4 8.9 1.3 36 6.7 WNW 30 57 16 31 1004.9 1005.0 0.0
23/07:50am 16.4 9.4 1.7 37 6.5 WNW 28 56 15 30 1004.9 1005.0 0.0
23/07:30am 15.9 12.1 4.0 45 5.5 WNW 13 26 7 14 1004.5 1004.6 0.0
23/07:00am 14.9 11.5 4.0 48 5.0 WNW 11 17 6 9 1003.9 1004.0 0.0
23/06:30am 14.9 11.1 4.0 48 5.0 WNW 13 17 7 9 1003.1 1003.2 0.0
23/06:00am 16.3 11.1 3.7 43 5.9 NW 20 28 11 15 1002.1 1002.2 0.0
23/05:31am 17.2 10.5 3.5 40 6.4 WNW 28 52 15 28 1001.8 1001.9 0.0
23/05:30am 17.1 10.7 3.4 40 6.3 WNW 26 52 14 28 1001.7 1001.8 0.0
23/05:00am 17.5 10.8 3.4 39 6.6 WNW 28 57 15 31 1000.6 1000.7 0.0
23/04:56am 17.5 10.8 3.4 39 6.6 WNW 28 46 15 25 1000.6 1000.7 0.0
23/04:30am 17.3 11.7 5.3 45 5.8 WNW 24 50 13 27 999.9 1000.0 0.0
23/04:00am 17.3 10.5 7.6 53 4.9 W 33 54 18 29 999.2 999.3 0.0
23/03:30am 17.2 8.8 9.1 59 4.2 WSW 43 65 23 35 998.6 998.7 0.0
23/03:13am 18.7 12.3 10.8 60 4.3 WSW 35 57 19 31 998.2 998.2 0.0
23/03:00am 23.6 19.4 13.5 53 5.9 NW 28 54 15 29 997.2 997.2 0.0
23/02:30am 23.6 19.0 13.5 53 5.9 NW 30 50 16 27 997.1 997.1 0.0
23/02:00am 23.6 18.8 14.0 55 5.7 NW 32 56 17 30 997.2 997.2 0.0
23/01:31am 23.2 19.4 14.7 58 5.0 NW 28 54 15 29 997.2 997.2 0.0
23/01:30am 23.2 19.8 14.7 58 5.0 NW 26 54 14 29 997.3 997.3 0.0
23/01:00am 22.8 20.8 15.4 63 4.5 NW 20 37 11 20 997.6 997.6 0.0
23/12:30am 22.1 20.2 15.2 65 4.1 NW 19 28 10 15 998.1 998.1 0.0
23/12:00am 21.4 20.1 15.7 70 3.4 NW 17 26 9 14 998.5 998.6 0.0
 
Date/Time
EST
Temp
°C
App
Temp
°C
Dew
Point
°C
Rel
Hum
%
Delta-T
°C
Wind Press
QNH
hPa
Press
MSL
hPa
Rain since
9am
mm
Dir  Spd
km/h
Gust
km/h
Spd
kts
Gust
kts
22/11:30pm 20.7 20.3 16.1 75 2.8 NW 13 24 7 13 998.8 998.9 0.0
22/11:00pm 20.6 19.8 16.2 76 2.7 NW 15 22 8 12 999.1 999.2 0.0
22/10:30pm 20.6 19.9 16.4 77 2.5 NNW 15 20 8 11 999.8 999.9 0.0
22/10:00pm 21.1 20.4 16.3 74 2.9 NNW 15 28 8 15 1000.7 1000.8 0.0
22/09:30pm 20.9 20.5 16.3 75 2.8 NW 13 20 7 11 1001.4 1001.5 0.0
22/09:00pm 20.6 19.8 16.0 75 2.8 NW 15 24 8 13 1002.0 1002.1 0.0
22/08:30pm 20.2 19.7 15.8 76 2.6 NW 13 19 7 10 1002.0 1002.1 0.0
22/08:00pm 20.4 19.4 15.6 74 2.9 WNW 15 22 8 12 1002.5 1002.6 0.0
22/07:30pm 21.1 19.8 15.9 72 3.1 NW 17 30 9 16 1002.2 1002.3 0.0
22/07:00pm 21.2 20.0 16.0 72 3.1 NW 17 26 9 14 1002.2 1002.3 0.0
22/06:30pm 21.4 20.2 16.1 72 3.2 NW 17 28 9 15 1002.6 1002.7 0.0
22/06:00pm 21.8 20.2 16.1 70 3.5 NNW 19 30 10 16 1002.2 1002.3 0.0
22/05:30pm 22.0 20.5 16.3 70 3.5 NNW 19 30 10 16 1002.3 1002.4 0.0
22/05:00pm 22.5 20.8 16.3 68 3.8 NNW 20 33 11 18 1002.3 1002.4 0.0
22/04:30pm 23.6 20.9 15.6 61 4.8 NNW 24 37 13 20 1002.3 1002.4 0.0
22/04:00pm 24.0 21.7 15.8 60 5.0 NW 22 35 12 19 1003.0 1003.1 0.0
22/03:30pm 24.1 21.4 15.6 59 5.1 NW 24 41 13 22 1003.3 1003.4 0.0
22/03:00pm 23.8 21.4 15.3 59 5.1 NNW 22 41 12 22 1003.5 1003.6 0.0
22/02:30pm 23.8 22.0 15.6 60 5.0 NW 19 33 10 18 1003.9 1004.0 0.0
22/02:00pm 24.3 22.0 15.8 59 5.2 NW 22 39 12 21 1003.9 1004.0 0.0
22/01:30pm 23.9 21.5 15.4 59 5.1 NW 22 39 12 21 1004.6 1004.7 0.0
22/01:21pm 23.9 21.6 15.7 60 5.0 NW 22 44 12 24 1004.9 1005.0 0.0
22/01:00pm 23.6 23.7 16.6 65 4.3 NW 11 22 6 12 1005.5 1005.6 0.0
22/12:30pm 21.7 20.6 15.3 67 3.8 WNW 15 22 8 12 1006.5 1006.5 0.0
22/12:00pm 20.7 19.8 15.9 74 2.9 NW 15 24 8 13 1007.3 1007.3 0.0
22/11:30am 19.2 18.4 15.1 77 2.4 NNW 13 19 7 10 1008.5 1008.5 0.0
22/11:00am 18.0 17.0 14.7 81 1.9 NNW 13 19 7 10 1009.4 1009.4 0.0
22/10:30am 16.9 15.1 14.4 85 1.4 NNW 17 24 9 13 1009.7 1009.7 0.0
22/10:00am 16.3 14.3 13.8 85 1.4 NNW 17 26 9 14 1010.5 1010.5 0.0
22/09:30am 17.1 15.7 14.4 84 1.6 NNW 15 26 8 14 1011.2 1011.2 0.0
22/09:00am 16.4 15.3 15.4 94 0.6 NNW 15 20 8 11 1011.1 1011.1 0.0
22/08:30am 12.6 11.6 12.4 99 0.1 E 9 15 5 8 1011.5 1011.5 0.0
22/08:00am 10.7 9.8 10.5 99 0.1 SE 6 7 3 4 1011.6 1011.6 0.0
22/07:30am 9.4 8.5 9.3 99 0.0 SSW 4 7 2 4 1011.8 1011.8 0.0
22/07:00am 9.0 7.6 8.9 99 0.0 S 6 9 3 5 1011.9 1011.9 0.0
22/06:30am 8.7 8.0 8.6 99 0.0 SSE 2 7 1 4 1012.3 1012.4 0.0
22/06:00am 9.1 7.7 9.0 99 0.0 SE 6 9 3 5 1012.3 1012.4 0.0
22/05:30am 9.4 8.9 9.3 99 0.0 SE 2 6 1 3 1012.1 1012.2 0.0
22/05:00am 9.0 8.0 8.9 99 0.0 SSE 4 7 2 4 1012.3 1012.4 0.0
22/04:30am 8.8 8.5 8.7 99 0.0 CALM 0 0 0 0 1012.3 1012.4 0.0
22/04:00am 8.5 8.1 8.4 99 0.0 CALM 0 0 0 0 1012.9 1013.0 0.0
22/03:30am 8.9 8.6 8.8 99 0.0 CALM 0 0 0 0 1013.3 1013.4 0.0
22/03:00am 9.1 8.5 9.0 99 0.0 SE 2 6 1 3 1013.4 1013.5 0.0
22/02:30am 8.2 7.8 8.1 99 0.0 CALM 0 0 0 0 1013.5 1013.6 0.0
22/02:00am 8.1 7.6 8.0 99 0.0 CALM 0 0 0 0 1013.8 1013.9 0.0
22/01:30am 8.2 7.8 8.1 99 0.0 CALM 0 0 0 0 1014.5 1014.6 0.0
22/01:00am 7.9 7.4 7.8 99 0.0 CALM 0 0 0 0 1014.6 1014.7 0.0
22/12:30am 8.1 7.3 8.0 99 0.0 WSW 2 6 1 3 1014.9 1015.0 0.0
22/12:00am 8.3 7.5 8.0 98 0.1 W 2 7 1 4 1015.3 1015.4 0.0
 
Date/Time
EST
Temp
°C
App
Temp
°C
Dew
Point
°C
Rel
Hum
%
Delta-T
°C
Wind Press
QNH
hPa
Press
MSL
hPa
Rain since
9am
mm
Dir  Spd
km/h
Gust
km/h
Spd
kts
Gust
kts
21/11:30pm 8.3 7.8 8.0 98 0.1 CALM 0 0 0 0 1015.5 1015.6 0.0
21/11:00pm 8.7 8.3 8.4 98 0.1 CALM 0 0 0 0 1015.4 1015.5 0.0
21/10:30pm 8.6 8.2 8.2 97 0.2 CALM 0 0 0 0 1015.7 1015.8 0.0
21/10:00pm 9.1 8.8 8.8 98 0.1 CALM 0 0 0 0 1015.8 1015.9 0.0
21/09:30pm 9.8 9.7 9.3 97 0.2 CALM 0 0 0 0 1016.1 1016.2 0.0
21/09:00pm 9.1 7.4 8.5 96 0.3 WSW 7 9 4 5 1016.3 1016.4 0.0
21/08:30pm 10.7 10.8 10.2 97 0.3 CALM 0 0 0 0 1016.0 1016.1 0.0
21/08:00pm 10.4 9.6 9.8 96 0.3 WSW 4 9 2 5 1016.1 1016.2 0.0
21/07:30pm 11.5 10.1 11.0 97 0.3 WSW 9 13 5 7 1015.8 1015.9 0.0
21/07:00pm 11.7 10.8 11.2 97 0.3 W 7 9 4 5 1015.4 1015.5 0.0
21/06:30pm 12.8 11.3 12.0 95 0.4 WSW 11 11 6 6 1015.5 1015.6 0.0
21/06:00pm 13.4 13.9 11.6 89 1.0 CALM 0 0 0 0 1015.6 1015.7 0.0
21/05:30pm 15.1 15.9 12.6 85 1.4 CALM 0 0 0 0 1015.4 1015.5 0.0
21/05:00pm 17.2 17.0 12.9 76 2.4 N 6 9 3 5 1015.3 1015.4 0.0
21/04:30pm 18.5 17.9 13.6 73 2.8 NNE 9 11 5 6 1015.3 1015.4 0.0
21/04:00pm 18.0 17.3 13.3 74 2.7 N 9 13 5 7 1015.3 1015.4 0.0
21/03:30pm 18.5 18.3 13.1 71 3.1 NE 6 9 3 5 1015.5 1015.6 0.0
21/03:00pm 19.5 19.3 13.7 69 3.3 NNW 7 11 4 6 1015.6 1015.7 0.0
21/02:30pm 18.6 19.3 13.5 72 2.9 E 2 7 1 4 1015.8 1015.9 0.0
21/02:00pm 18.1 18.7 13.2 73 2.8 ENE 2 7 1 4 1016.0 1016.1 0.0
21/01:30pm 18.0 18.3 13.3 74 2.7 WSW 4 9 2 5 1016.3 1016.4 0.0
21/01:00pm 17.9 18.5 13.2 74 2.6 W 2 7 1 4 1016.5 1016.6 0.0
21/12:30pm 17.1 16.8 13.2 78 2.2 WNW 7 11 4 6 1017.1 1017.2 0.0
21/12:00pm 16.9 17.0 13.8 82 1.8 NNW 6 11 3 6 1017.6 1017.7 0.0
21/11:30am 16.3 16.0 13.2 82 1.7 N 7 11 4 6 1018.2 1018.3 0.0
21/11:00am 16.3 16.0 13.4 83 1.6 WNW 7 11 4 6 1018.7 1018.8 0.0
21/10:30am 16.5 15.5 13.4 82 1.7 SW 11 17 6 9 1019.0 1019.1 0.0
21/10:00am 16.7 16.1 13.6 82 1.7 SW 9 15 5 8 1019.1 1019.2 0.0
21/09:30am 15.9 15.8 13.2 84 1.5 WNW 6 9 3 5 1019.3 1019.4 0.0
21/09:00am 15.5 16.2 13.3 87 1.2 SW 2 6 1 3 1019.3 1019.4 6.2
21/08:30am 15.1 15.5 13.6 91 0.8 SW 4 9 2 5 1019.4 1019.5 6.2
21/08:00am 14.4 15.5 13.6 95 0.4 CALM 0 6 0 3 1019.1 1019.2 6.2
21/07:30am 13.8 14.4 13.2 96 0.3 NNW 2 6 1 3 1018.9 1019.0 6.2
21/07:00am 13.7 14.7 13.1 96 0.3 CALM 0 0 0 0 1019.1 1019.2 6.2
21/06:30am 13.4 13.8 12.6 95 0.4 WSW 2 7 1 4 1018.8 1018.9 6.2
21/06:00am 13.6 13.7 12.7 94 0.5 WNW 4 7 2 4 1018.8 1018.9 6.2
21/05:30am 14.1 14.6 12.8 92 0.7 WSW 2 6 1 3 1018.5 1018.6 6.2
21/05:00am 14.3 14.1 13.0 92 0.7 WNW 6 9 3 5 1018.5 1018.6 6.2
21/04:30am 14.2 13.8 13.1 93 0.6 WNW 7 9 4 5 1018.3 1018.4 6.2
21/04:00am 14.0 14.2 13.1 94 0.5 W 4 6 2 3 1018.3 1018.4 6.2
21/03:30am 14.0 13.8 13.1 94 0.5 NNW 6 9 3 5 1018.5 1018.6 6.2
21/03:00am 13.9 13.7 13.0 94 0.5 W 6 9 3 5 1018.7 1018.8 6.2
21/02:30am 14.0 13.1 12.6 91 0.8 SW 9 11 5 6 1018.8 1018.9 6.2
21/02:00am 13.6 13.3 12.8 95 0.4 WSW 6 9 3 5 1018.9 1019.0 6.2
21/01:30am 14.4 13.4 13.3 93 0.6 SSW 11 15 6 8 1018.9 1019.0 6.2
21/01:00am 14.2 13.5 13.2 94 0.6 SSW 9 15 5 8 1019.1 1019.2 6.2
21/12:30am 13.6 14.3 13.3 98 0.2 NNW 2 9 1 5 1019.1 1019.2 6.2
21/12:00am 14.3 15.6 14.1 99 0.1 CALM 0 0 0 0 1019.2 1019.3 6.2
 
Date/Time
EST
Temp
°C
App
Temp
°C
Dew
Point
°C
Rel
Hum
%
Delta-T
°C
Wind Press
QNH
hPa
Press
MSL
hPa
Rain since
9am
mm
Dir  Spd
km/h
Gust
km/h
Spd
kts
Gust
kts
20/11:30pm 14.2 15.5 14.0 99 0.1 CALM 0 0 0 0 1019.5 1019.6 6.2
20/11:00pm 14.0 14.0 13.7 98 0.2 W 6 9 3 5 1019.4 1019.5 6.2
20/10:30pm 13.7 14.0 13.4 98 0.2 NNE 4 6 2 3 1019.1 1019.2 6.2
20/10:00pm 14.0 15.2 13.7 98 0.2 CALM 0 6 0 3 1019.4 1019.5 6.2
20/09:30pm 14.5 15.8 14.2 98 0.2 CALM 0 0 0 0 1019.4 1019.5 6.2
20/09:00pm 14.8 15.9 14.5 98 0.2 WNW 2 7 1 4 1019.2 1019.3 6.2
20/08:30pm 14.5 14.4 14.0 97 0.3 WSW 7 11 4 6 1019.3 1019.4 6.2
20/08:00pm 15.0 14.0 14.5 97 0.3 N 13 17 7 9 1018.6 1018.7 6.0
20/07:30pm 15.1 15.2 14.5 96 0.3 N 7 9 4 5 1019.1 1019.2 5.8

Other Formats:

Comma delimited format used in spreadsheet applications
http://www.bom.gov.au/fwo/IDN60801/IDN60801.95771.axf

JavaScript Object Notation format (JSON) in row-major order
http://www.bom.gov.au/fwo/IDN60801/IDN60801.95771.json